Shinkai Maru — JJ4012 — position and weather

sailwx.info

Track history (hours):
 
Tides and Currents Weather Stations Pressure Air Temp Water Temp Dewpoint Dewpoint Depression Visibility Wind Speed Wind Dir Waves Ship Positions

Shinkai Maru

Last reported at 2014-Aug-01 00:29 UTC. Time now 2014-Aug-02 00:24 UTC.
Position N 34°39' E 134°52'.

Length 76 m; draft 4.5 m.

Type: Cargo ship. MMSI: 431301346.

Date/timePositionNaut miles runAvg speedWind from/ knotsBaromVisibWave heightAir tempDewpointWater temp
2014-Aug-01 00:29N 34°39' E 134°52'1112.1
2014-Jul-31 23:33N 34°35' E 135°05'2412.0
2014-Jul-31 21:33N 34°12' E 135°00'7 0.2
2014-Jul-30 03:15N 34°19' E 134°59'911.6
2014-Jul-30 02:31N 34°27' E 135°01'9 9.9
2014-Jul-30 01:34N 34°37' E 135°01'12 9.3
2014-Jul-30 00:18N 34°41' E 134°48'7 0.4
2014-Jul-29 07:33N 34°37' E 134°56'8 8.4
2014-Jul-29 06:33N 34°34' E 135°05'2311.4
2014-Jul-29 04:33N 34°12' E 134°60'22910.4
2014-Jul-28 06:33N 35°00' E 139°32'1212.4
2014-Jul-28 05:33N 35°08' E 139°43'1110.5
2014-Jul-28 04:33N 35°19' E 139°43'1110.7
2014-Jul-28 03:33N 35°28' E 139°49'1212.2
2014-Jul-28 02:33N 35°38' E 139°58'3 2.9
2014-Jul-28 01:32N 35°41' E 139°57'0 0.0
2014-Jul-28 00:26N 35°41' E 139°57'0 0.0
2014-Jul-27 23:20N 35°41' E 139°57'0 0.0
2014-Jul-27 22:33N 35°41' E 139°57'3 3.0
2014-Jul-27 21:26N 35°37' E 139°58'0 0.0
2014-Jul-27 20:29N 35°37' E 139°58'5 5.8
2014-Jul-27 19:33N 35°33' E 139°55'1212.2
2014-Jul-27 18:33N 35°23' E 139°46'1211.9
2014-Jul-27 17:33N 35°11' E 139°47'1111.3
2014-Jul-27 16:33N 35°02' E 139°39'1212.1
2014-Jul-27 15:32N 34°54' E 139°27'225 9.7
2014-Jul-26 16:17N 34°14' E 134°59'1112.0
2014-Jul-26 15:22N 34°25' E 135°00'1012.1
2014-Jul-26 14:33N 34°35' E 135°03'10 9.8
2014-Jul-26 13:33N 34°38' E 134°52'4 0.3
2014-Jul-26 02:28N 34°41' E 134°49'1010.3
2014-Jul-26 01:29N 34°38' E 135°01'1010.2
2014-Jul-26 00:32N 34°28' E 135°03'1412.8
2014-Jul-25 23:28N 34°15' E 134°59'2 0.0
2014-Jul-24 00:19N 34°13' E 134°60'1012.1
2014-Jul-23 23:31N 34°23' E 135°00'1111.5
2014-Jul-23 22:32N 34°34' E 135°03'9 8.9
2014-Jul-23 21:33N 34°37' E 134°53'1 0.1
2014-Jul-23 10:30N 34°38' E 134°54'1313.6
2014-Jul-23 09:33N 34°37' E 135°10'1212.1
2014-Jul-23 08:33N 34°39' E 135°24'2 1.5
2014-Jul-23 07:15N 34°40' E 135°25'0 0.0
2014-Jul-23 06:21N 34°40' E 135°25'0 0.0
2014-Jul-23 05:15N 34°40' E 135°25'0 0.0
2014-Jul-23 04:33N 34°40' E 135°25'0 0.0
2014-Jul-23 03:23N 34°40' E 135°25'7 7.9
2014-Jul-23 02:31N 34°36' E 135°19'1212.7
2014-Jul-23 01:33N 34°35' E 135°04'12211.0
2014-Jul-22 14:29N 33°58' E 132°43'  
Track history (hours):
 
Tides and Currents Weather Stations Pressure Air Temp Water Temp Dewpoint Dewpoint Depression Visibility Wind Speed Wind Dir Waves Ship Positions

Shinkai Maru

Last reported at 2014-Aug-01 00:29 UTC. Time now 2014-Aug-02 00:24 UTC.
Position N 34°39' E 134°52'.

Length 76 m; draft 4.5 m.

Type: Cargo ship. MMSI: 431301346.

Date/timePositionNaut miles runAvg speedWind from/ knotsBaromVisibWave heightAir tempDewpointWater temp
2014-Aug-01 00:29N 34°39' E 134°52'1112.1
2014-Jul-31 23:33N 34°35' E 135°05'2412.0
2014-Jul-31 21:33N 34°12' E 135°00'7 0.2
2014-Jul-30 03:15N 34°19' E 134°59'911.6
2014-Jul-30 02:31N 34°27' E 135°01'9 9.9
2014-Jul-30 01:34N 34°37' E 135°01'12 9.3
2014-Jul-30 00:18N 34°41' E 134°48'7 0.4
2014-Jul-29 07:33N 34°37' E 134°56'8 8.4
2014-Jul-29 06:33N 34°34' E 135°05'2311.4
2014-Jul-29 04:33N 34°12' E 134°60'22910.4
2014-Jul-28 06:33N 35°00' E 139°32'1212.4
2014-Jul-28 05:33N 35°08' E 139°43'1110.5
2014-Jul-28 04:33N 35°19' E 139°43'1110.7
2014-Jul-28 03:33N 35°28' E 139°49'1212.2
2014-Jul-28 02:33N 35°38' E 139°58'3 2.9
2014-Jul-28 01:32N 35°41' E 139°57'0 0.0
2014-Jul-28 00:26N 35°41' E 139°57'0 0.0
2014-Jul-27 23:20N 35°41' E 139°57'0 0.0
2014-Jul-27 22:33N 35°41' E 139°57'3 3.0
2014-Jul-27 21:26N 35°37' E 139°58'0 0.0
2014-Jul-27 20:29N 35°37' E 139°58'5 5.8
2014-Jul-27 19:33N 35°33' E 139°55'1212.2
2014-Jul-27 18:33N 35°23' E 139°46'1211.9
2014-Jul-27 17:33N 35°11' E 139°47'1111.3
2014-Jul-27 16:33N 35°02' E 139°39'1212.1
2014-Jul-27 15:32N 34°54' E 139°27'225 9.7
2014-Jul-26 16:17N 34°14' E 134°59'1112.0
2014-Jul-26 15:22N 34°25' E 135°00'1012.1
2014-Jul-26 14:33N 34°35' E 135°03'10 9.8
2014-Jul-26 13:33N 34°38' E 134°52'4 0.3
2014-Jul-26 02:28N 34°41' E 134°49'1010.3
2014-Jul-26 01:29N 34°38' E 135°01'1010.2
2014-Jul-26 00:32N 34°28' E 135°03'1412.8
2014-Jul-25 23:28N 34°15' E 134°59'2 0.0
2014-Jul-24 00:19N 34°13' E 134°60'1012.1
2014-Jul-23 23:31N 34°23' E 135°00'1111.5
2014-Jul-23 22:32N 34°34' E 135°03'9 8.9
2014-Jul-23 21:33N 34°37' E 134°53'1 0.1
2014-Jul-23 10:30N 34°38' E 134°54'1313.6
2014-Jul-23 09:33N 34°37' E 135°10'1212.1
2014-Jul-23 08:33N 34°39' E 135°24'2 1.5
2014-Jul-23 07:15N 34°40' E 135°25'0 0.0
2014-Jul-23 06:21N 34°40' E 135°25'0 0.0
2014-Jul-23 05:15N 34°40' E 135°25'0 0.0
2014-Jul-23 04:33N 34°40' E 135°25'0 0.0
2014-Jul-23 03:23N 34°40' E 135°25'7 7.9
2014-Jul-23 02:31N 34°36' E 135°19'1212.7
2014-Jul-23 01:33N 34°35' E 135°04'12211.0
2014-Jul-22 14:29N 33°58' E 132°43'  

Dump ship's entire track history